Layton City
, Layton
Last Weather Update:09/29/2011 11:00:00 PM
Date
ETo
ETc
Rain
Irrigation
Req
Temp
Max
Temp
Min
Temp
Avg
Avg RH
Avg Wind
Avg Solar
inches
inches
incehs
inches
F
F
F
%
%
watts/m2
08/01/2011 0.16" 0.14" 0.56" -0.31" 80.6° 64.2° 71.1° 72.9% 2.4 MPH 208.8w/m2
08/02/2011 0.20" 0.18" 0.04" 0.15" 88.7° 61.2° 74.0° 57.0% 1.9 MPH 293.8w/m2
08/03/2011 0.21" 0.18" 0.09" 0.11" 82.9° 63.6° 73.9° 56.6% 3.1 MPH 299.9w/m2
08/04/2011 0.00" 0.00" 0.00" 0.00" 75.6° 72.0° 74.1° 44.6% 2.2 MPH 0.0w/m2
08/05/2011 0.00" 0.00" 0.00" 0.00" 72.6° 69.8° 71.4° 56.5% 2.3 MPH 0.0w/m2
08/06/2011 0.00" 0.00" 0.00" 0.00" 75.5° 67.0° 72.0° 44.4% 2.3 MPH 0.0w/m2
08/07/2011 0.24" 0.20" 0.00" 0.20" 91.3° 59.3° 75.4° 29.9% 2.6 MPH 311.2w/m2
08/08/2011 0.01" 0.00" 0.00" 0.00" 80.1° 77.7° 79.1° 21.5% 4.7 MPH 0.0w/m2
08/09/2011 0.00" 0.00" 0.00" 0.00" 78.3° 70.8° 74.3° 26.9% 2.1 MPH 0.0w/m2
08/10/2011 0.22" 0.18" 0.00" 0.18" 90.0° 59.9° 75.5° 30.2% 1.8 MPH 303.9w/m2
08/11/2011 0.00" 0.00" 0.00" 0.00" 76.9° 68.4° 71.7° 36.3% 1.2 MPH 0.0w/m2
08/12/2011 0.22" 0.18" 0.00" 0.18" 88.6° 59.5° 75.2° 33.9% 2.5 MPH 300.9w/m2
08/13/2011 0.00" 0.00" 0.00" 0.00" 74.3° 67.9° 71.6° 34.1% 0.7 MPH 0.0w/m2
08/14/2011 0.00" 0.00" 0.00" 0.00" 81.2° 66.8° 74.4° 35.1% 5.4 MPH 0.0w/m2
08/15/2011 0.01" 0.00" 0.04" -0.03" 80.9° 65.1° 74.6° 46.3% 8.9 MPH 0.0w/m2
08/16/2011 0.00" 0.00" 0.07" -0.06" 71.7° 63.5° 67.8° 63.1% 4.0 MPH 0.0w/m2
08/17/2011 0.20" 0.16" 0.00" 0.16" 92.3° 61.2° 75.9° 37.0% 1.6 MPH 276.7w/m2
08/18/2011 0.21" 0.16" 0.00" 0.16" 92.4° 59.9° 76.6° 30.4% 1.6 MPH 302.4w/m2
08/19/2011 0.20" 0.15" 0.05" 0.11" 92.0° 67.3° 78.7° 40.5% 3.1 MPH 269.0w/m2
08/20/2011 0.00" 0.00" 0.00" 0.00" 79.1° 74.8° 77.0° 35.8% 1.2 MPH 0.1w/m2
08/21/2011 0.00" 0.00" 0.00" 0.00" 75.1° 71.3° 73.3° 47.6% 1.1 MPH 0.0w/m2
08/22/2011 0.21" 0.16" 0.00" 0.16" 95.5° 63.8° 79.2° 37.0% 2.3 MPH 267.4w/m2
08/23/2011 0.20" 0.15" 0.00" 0.15" 94.2° 63.9° 79.6° 33.4% 1.8 MPH 291.8w/m2
08/24/2011 0.00" 0.00" 0.00" 0.00" 79.4° 70.6° 73.9° 38.1% 0.8 MPH 0.1w/m2
08/25/2011 0.00" 0.00" 0.00" 0.00" 81.6° 68.6° 75.0° 42.8% 2.0 MPH 0.0w/m2
08/26/2011 0.00" 0.00" 0.00" 0.00" 82.2° 78.3° 80.1° 33.3% 5.4 MPH 0.0w/m2
08/27/2011 0.20" 0.15" 0.00" 0.15" 94.5° 68.3° 81.3° 41.2% 2.4 MPH 271.8w/m2
08/28/2011 0.18" 0.13" 0.19" -0.02" 91.0° 66.2° 77.3° 56.5% 2.0 MPH 276.5w/m2
08/29/2011 0.00" 0.00" 0.37" -0.30" 78.2° 62.5° 66.8° 83.1% 2.6 MPH 0.1w/m2
08/30/2011 0.00" 0.00" 0.06" -0.05" 74.0° 65.3° 69.7° 65.8% 4.4 MPH 0.0w/m2
08/31/2011 0.00" 0.00" 0.00" 0.00" 77.5° 70.4° 73.8° 46.1% 4.9 MPH 0.0w/m2
Totals: 2.67" 2.15" 1.47" 0.97" 95.5° 59.3° 74.7° 43.8% 2.7 MPH 118.5w/m2